createdAt,value
2018-08-07T00:53:05.689Z,2.20
2018-08-07T01:29:00.184Z,2.87
2018-08-07T01:32:48.565Z,3.30
2018-08-07T13:06:55.593Z,3.50
2018-08-07T13:09:32.416Z,3.63
2018-08-07T13:12:10.290Z,3.30
2018-08-07T13:14:49.401Z,3.47
2018-08-07T13:17:27.662Z,3.60
2018-08-07T13:20:05.561Z,3.70
2018-08-07T13:22:43.928Z,3.67
2018-08-07T13:25:23.782Z,3.50
2018-08-07T13:28:01.396Z,3.80
2018-08-07T13:30:38.747Z,3.80
2018-08-07T13:33:20.343Z,3.53
2018-08-07T13:36:03.589Z,3.73
2018-08-07T13:38:41.146Z,3.53
2018-08-07T13:41:29.923Z,3.80
2018-08-07T13:44:10.303Z,3.97
2018-08-07T13:46:50.435Z,3.40
2018-08-07T13:49:28.304Z,3.67
2018-08-07T13:52:05.576Z,3.53
2018-08-07T13:54:42.655Z,3.90
2018-08-07T13:57:22.198Z,3.90
2018-08-07T14:00:00.128Z,4.00
2018-08-07T14:02:37.570Z,3.80
2018-08-07T14:05:19.364Z,3.67
2018-08-07T14:07:57.662Z,3.63
2018-08-07T14:10:35.024Z,3.70
2018-08-07T14:13:11.638Z,3.83
2018-08-07T14:15:48.561Z,3.90
2018-08-07T14:18:28.252Z,4.03
2018-08-07T14:21:05.559Z,4.00
2018-08-07T14:23:46.446Z,3.60
2018-08-07T14:26:26.670Z,3.47
2018-08-07T14:29:06.091Z,3.60
2018-08-07T14:31:47.310Z,3.90
2018-08-07T14:34:25.510Z,3.87
2018-08-07T14:37:04.071Z,4.00
2018-08-07T14:39:45.368Z,3.90
2018-08-07T14:42:22.694Z,3.73
2018-08-07T14:44:59.738Z,3.33
2018-08-07T14:47:44.124Z,3.73
2018-08-07T14:50:24.159Z,3.80
2018-08-07T14:53:02.355Z,3.73
2018-08-07T14:55:41.690Z,3.70
2018-08-07T14:58:18.795Z,3.57
2018-08-07T15:00:55.367Z,3.77
2018-08-07T15:03:32.266Z,3.77
2018-08-07T15:06:09.546Z,3.57
2018-08-07T15:08:53.186Z,3.80
2018-08-07T15:11:29.918Z,3.60
2018-08-07T15:14:13.499Z,3.90
2018-08-07T15:16:51.224Z,3.77
2018-08-07T15:19:29.356Z,3.80
2018-08-07T15:22:06.515Z,3.43
2018-08-07T15:24:43.266Z,3.87
2018-08-07T15:27:20.588Z,3.43
2018-08-07T15:29:57.640Z,3.77
2018-08-07T15:32:34.781Z,4.03
2018-08-07T15:35:11.911Z,3.70
2018-08-07T15:37:49.205Z,3.90
2018-08-07T15:40:29.595Z,3.50
2018-08-07T15:43:12.574Z,3.50
2018-08-07T15:45:55.295Z,3.50
2018-08-07T15:48:32.313Z,4.30
2018-08-07T15:53:57.503Z,3.87
2018-08-07T15:56:37.822Z,3.87
2018-08-07T15:59:14.750Z,3.60
2018-08-07T16:02:00.404Z,3.93
2018-08-07T16:04:39.688Z,3.70
2018-08-07T16:07:21.187Z,3.90
2018-08-07T16:12:48.309Z,3.80
2018-08-07T16:15:30.655Z,3.77
2018-08-07T16:18:07.187Z,3.90
2018-08-07T16:20:44.255Z,3.77
2018-08-07T16:23:20.958Z,3.70
2018-08-07T16:25:59.158Z,4.10
2018-08-07T16:28:36.433Z,3.60
2018-08-07T16:31:13.553Z,3.70
2018-08-07T16:33:50.618Z,3.40
2018-08-07T16:36:29.154Z,3.50
2018-08-07T16:39:08.247Z,3.87
2018-08-07T16:41:47.441Z,4.00
2018-08-07T16:44:24.443Z,3.70
2018-08-07T16:47:02.437Z,4.30
2018-08-07T16:49:39.280Z,3.57
2018-08-07T16:52:17.783Z,3.77
2018-08-07T16:54:54.933Z,4.13
2018-08-07T16:57:32.449Z,3.43
2018-08-07T17:00:12.082Z,3.70
2018-08-07T17:03:09.631Z,4.07
2018-08-07T17:05:47.495Z,3.90
2018-08-07T17:08:27.286Z,3.80
2018-08-07T17:11:05.299Z,4.07
2018-08-07T17:13:42.090Z,4.43
2018-08-07T17:16:19.363Z,4.10
2018-08-07T17:18:56.168Z,4.10
2018-08-07T17:21:32.925Z,4.20
2018-08-07T17:24:10.246Z,4.30
2018-08-07T17:26:46.919Z,4.17
2018-08-07T17:29:24.259Z,3.83
2018-08-07T17:32:00.994Z,4.07
2018-08-07T17:34:38.899Z,4.20
2018-08-07T17:37:15.706Z,4.47
2018-08-07T17:39:53.842Z,4.23
2018-08-07T17:42:30.564Z,4.23
2018-08-07T17:45:10.263Z,4.13
2018-08-07T17:47:47.472Z,4.13
2018-08-07T17:50:29.279Z,4.10
2018-08-07T17:53:06.234Z,3.90
2018-08-07T17:55:43.767Z,4.13
2018-08-07T17:58:21.955Z,4.27
2018-08-07T18:00:58.457Z,4.30
2018-08-07T18:03:35.262Z,4.47
2018-08-07T18:06:12.555Z,4.80
2018-08-07T18:08:50.261Z,4.33
2018-08-07T18:11:29.633Z,4.33
2018-08-07T18:14:06.988Z,4.50
2018-08-07T18:16:44.997Z,4.23
2018-08-07T18:19:22.276Z,4.57
2018-08-07T18:21:59.044Z,4.70
2018-08-07T18:24:35.744Z,4.27
2018-08-07T18:27:14.490Z,4.67
2018-08-07T18:29:52.428Z,4.50
2018-08-07T18:35:21.894Z,4.83
2018-08-07T18:38:00.927Z,4.80
2018-08-07T18:40:37.631Z,4.87
2018-08-07T18:43:15.437Z,4.47
2018-08-07T18:45:52.904Z,4.83
2018-08-07T18:48:29.976Z,4.90
2018-08-07T18:51:06.894Z,4.47
2018-08-07T18:53:43.874Z,5.17
2018-08-07T18:56:20.541Z,4.87
2018-08-07T18:58:58.057Z,4.83
2018-08-07T19:01:35.683Z,5.00
2018-08-07T19:04:13.256Z,5.70
2018-08-07T19:06:49.964Z,5.50
2018-08-07T19:09:27.173Z,5.00
2018-08-07T19:12:04.477Z,5.60
2018-08-07T19:22:33.970Z,5.30
2018-08-07T19:25:12.136Z,5.90
2018-08-07T19:27:48.595Z,5.10
2018-08-07T19:30:27.190Z,5.33
2018-08-07T19:33:03.897Z,5.80
2018-08-07T19:35:41.498Z,5.73
2018-08-07T19:38:18.581Z,5.40
2018-08-07T19:40:55.438Z,5.57
2018-08-07T19:43:32.958Z,5.50
2018-08-07T19:49:08.397Z,5.83
2018-08-07T19:51:46.065Z,5.60
2018-08-07T19:54:24.064Z,5.83
2018-08-07T19:57:06.533Z,5.33
2018-08-07T19:59:55.385Z,6.80
2018-08-07T20:02:32.415Z,5.70
2018-08-07T20:05:10.178Z,6.20
2018-08-07T20:07:47.092Z,6.07
2018-08-07T20:10:24.408Z,6.07
2018-08-07T20:13:11.439Z,5.80
2018-08-07T20:15:57.317Z,6.07
2018-08-07T20:18:34.880Z,5.70
2018-08-07T20:21:11.632Z,6.23
2018-08-07T20:24:04.670Z,6.87
2018-08-07T20:30:26.557Z,5.20
2018-08-07T20:33:03.589Z,6.07
2018-08-07T20:35:41.643Z,6.20
2018-08-07T20:41:17.733Z,6.30
2018-08-07T20:43:57.637Z,5.47
2018-08-07T20:46:38.552Z,5.77
2018-08-07T20:49:17.936Z,6.00
2018-08-07T20:51:54.813Z,5.87
2018-08-07T20:54:31.253Z,6.00
2018-08-07T20:57:18.390Z,6.00
2018-08-07T20:59:57.031Z,7.50
2018-08-07T21:02:35.666Z,5.93
2018-08-07T21:05:12.004Z,5.87
2018-08-07T21:07:51.165Z,5.80
2018-08-07T21:10:29.357Z,6.00
2018-08-07T21:13:09.726Z,5.90
2018-08-07T21:15:46.649Z,5.83
2018-08-07T21:18:24.571Z,5.83
2018-08-07T21:21:04.583Z,5.90
2018-08-07T21:23:42.553Z,6.17
2018-08-07T21:26:20.152Z,6.17
2018-08-07T21:28:57.445Z,5.73
2018-08-07T21:31:33.793Z,6.30
2018-08-07T21:34:11.779Z,6.40
2018-08-07T21:36:47.688Z,6.00
2018-08-07T21:39:26.463Z,5.93
2018-08-07T21:42:03.911Z,6.20
2018-08-07T21:44:41.931Z,6.37
2018-08-07T21:47:18.616Z,6.30
2018-08-07T21:49:57.088Z,6.17
2018-08-07T21:52:40.122Z,6.00
2018-08-07T21:55:21.378Z,7.10
2018-08-07T21:57:58.056Z,7.30
2018-08-07T22:00:44.709Z,6.70
2018-08-07T22:03:25.773Z,6.20
2018-08-07T22:06:06.244Z,6.13
2018-08-07T22:08:43.506Z,6.40
2018-08-07T22:11:23.073Z,6.47
2018-08-07T22:14:04.600Z,6.50
2018-08-07T22:16:50.606Z,6.10
2018-08-07T22:19:27.104Z,6.50
2018-08-07T22:22:09.103Z,6.43
2018-08-07T22:24:45.160Z,7.30
2018-08-07T22:27:22.141Z,6.90
2018-08-07T22:29:59.140Z,6.70
2018-08-07T22:32:35.272Z,6.67
2018-08-07T22:35:11.378Z,6.27
2018-08-07T22:37:47.577Z,6.07
2018-08-07T22:40:23.909Z,6.27
2018-08-07T22:43:01.760Z,6.90
2018-08-07T22:45:39.603Z,6.60
2018-08-07T22:48:22.324Z,6.40
2018-08-07T22:50:58.610Z,6.73
2018-08-07T22:53:35.211Z,6.60
2018-08-07T22:56:11.317Z,6.90
2018-08-07T22:58:47.907Z,6.47
2018-08-07T23:01:25.431Z,6.60
2018-08-07T23:04:06.449Z,7.13
2018-08-07T23:06:43.160Z,6.87
2018-08-07T23:09:19.675Z,6.53
2018-08-07T23:11:55.885Z,6.53
2018-08-07T23:14:32.354Z,6.37
2018-08-07T23:17:09.275Z,7.17
2018-08-07T23:19:46.419Z,6.83
2018-08-07T23:22:23.527Z,6.47
2018-08-07T23:25:01.717Z,7.03
2018-08-07T23:27:40.140Z,6.67
2018-08-07T23:30:19.046Z,5.90
2018-08-07T23:32:55.269Z,6.20
2018-08-07T23:35:34.744Z,6.20
2018-08-07T23:38:11.333Z,6.50
2018-08-07T23:40:47.960Z,6.13
2018-08-07T23:43:27.663Z,7.00
2018-08-07T23:46:04.304Z,7.43
2018-08-07T23:48:45.366Z,7.63
2018-08-07T23:51:21.664Z,6.50
2018-08-07T23:54:08.371Z,7.17
2018-08-07T23:56:45.065Z,7.83
2018-08-07T23:59:21.835Z,7.27
